createdAt,value
2019-03-09T00:00:59.768Z,10.38
2019-03-09T00:06:07.927Z,10.16
2019-03-09T00:11:15.390Z,16.40
2019-03-09T00:16:23.450Z,21.64
2019-03-09T00:21:31.926Z,22.57
2019-03-09T00:26:39.017Z,19.48
2019-03-09T00:31:46.220Z,16.70
2019-03-09T00:37:07.181Z,20.69
2019-03-09T00:41:55.670Z,17.31
2019-03-09T00:47:03.857Z,14.74
2019-03-09T00:52:11.975Z,17.51
2019-03-09T00:57:20.192Z,14.59
2019-03-09T01:02:27.505Z,15.62
2019-03-09T01:07:35.588Z,14.76
2019-03-09T01:12:43.853Z,16.23
2019-03-09T01:17:52.118Z,18.77
2019-03-09T01:23:12.418Z,19.57
2019-03-09T01:27:59.497Z,17.86
2019-03-09T01:33:07.780Z,23.87
2019-03-09T01:38:15.802Z,19.06
2019-03-09T01:43:24.052Z,23.70
2019-03-09T01:48:31.166Z,22.77
2019-03-09T01:53:39.528Z,13.68
2019-03-09T01:58:46.730Z,13.08
2019-03-09T02:04:06.836Z,22.20
2019-03-09T02:08:55.026Z,15.79
2019-03-09T02:14:02.238Z,17.18
2019-03-09T02:19:10.442Z,19.65
2019-03-09T02:24:18.651Z,15.87
2019-03-09T02:29:25.856Z,15.64
2019-03-09T02:34:33.339Z,15.48
2019-03-09T02:39:40.570Z,16.86
2019-03-09T02:44:50.985Z,12.34
2019-03-09T02:49:48.185Z,17.43
2019-03-09T02:54:55.484Z,17.51
2019-03-09T03:00:02.814Z,16.22
2019-03-09T03:05:10.034Z,16.02
2019-03-09T03:10:18.271Z,14.78
2019-03-09T03:15:25.600Z,11.95
2019-03-09T03:20:32.838Z,11.54
2019-03-09T03:25:53.144Z,12.04
2019-03-09T03:30:53.287Z,10.59
2019-03-09T03:35:40.460Z,13.67
2019-03-09T03:40:48.634Z,13.18
2019-03-09T03:45:55.942Z,10.23
2019-03-09T03:51:15.928Z,10.39
2019-03-09T03:56:04.304Z,11.99
2019-03-09T04:01:12.509Z,14.50
2019-03-09T04:06:20.141Z,13.30
2019-03-09T04:11:27.395Z,17.36
2019-03-09T04:16:34.791Z,13.39
2019-03-09T04:21:41.997Z,13.64
2019-03-09T04:26:49.386Z,16.02
2019-03-09T04:31:56.622Z,16.87
2019-03-09T04:37:03.863Z,16.56
2019-03-09T04:42:12.053Z,15.77
2019-03-09T04:47:19.258Z,13.72
2019-03-09T04:52:27.327Z,17.27
2019-03-09T04:57:35.670Z,17.51
2019-03-09T05:02:42.907Z,13.90
2019-03-09T05:07:50.327Z,11.69
2019-03-09T05:12:57.774Z,16.71
2019-03-09T05:18:04.934Z,13.53
2019-03-09T05:23:12.005Z,20.22
2019-03-09T05:28:20.364Z,14.39
2019-03-09T05:33:27.436Z,16.98
2019-03-09T05:38:35.628Z,15.03
2019-03-09T05:43:43.865Z,13.47
2019-03-09T05:48:51.329Z,11.01
2019-03-09T05:53:58.373Z,13.15
2019-03-09T05:59:06.678Z,19.83
2019-03-09T06:04:14.927Z,13.95
2019-03-09T06:09:35.202Z,12.08
2019-03-09T06:14:22.383Z,14.36
2019-03-09T06:19:30.830Z,19.65
2019-03-09T06:24:38.094Z,19.83
2019-03-09T06:29:45.477Z,19.08
2019-03-09T06:34:52.618Z,17.05
2019-03-09T06:40:00.973Z,15.72
2019-03-09T06:45:08.070Z,18.36
2019-03-09T06:50:29.138Z,18.15
2019-03-09T06:55:17.354Z,17.49
2019-03-09T07:00:24.874Z,18.99
2019-03-09T07:05:32.208Z,15.25
2019-03-09T07:10:39.315Z,15.35
2019-03-09T07:20:56.511Z,21.62
2019-03-09T07:26:16.549Z,18.47
2019-03-09T07:31:04.901Z,20.18
2019-03-09T07:36:25.061Z,18.94
2019-03-09T07:41:25.322Z,17.69
2019-03-09T07:46:12.539Z,17.91
2019-03-09T07:51:19.888Z,21.37
2019-03-09T08:01:29.218Z,20.15
2019-03-09T08:06:37.429Z,19.82
2019-03-09T08:11:44.663Z,21.34
2019-03-09T08:16:51.839Z,19.97
2019-03-09T08:22:00.174Z,20.87
2019-03-09T08:27:08.566Z,18.03
2019-03-09T08:32:15.911Z,15.36
2019-03-09T08:37:22.975Z,13.42
2019-03-09T08:42:44.272Z,13.10
2019-03-09T08:47:51.656Z,17.39
2019-03-09T08:52:31.705Z,15.71
2019-03-09T08:57:51.859Z,13.55
2019-03-09T09:02:39.077Z,11.15
2019-03-09T09:07:47.147Z,7.58
2019-03-09T09:13:08.350Z,7.09
2019-03-09T09:17:55.634Z,11.24
2019-03-09T09:23:02.939Z,8.78
2019-03-09T09:33:11.109Z,6.01
2019-03-09T09:38:18.293Z,14.95
2019-03-09T09:48:40.177Z,8.24
2019-03-09T09:53:28.542Z,7.81
2019-03-09T09:58:35.628Z,9.16
2019-03-09T10:03:43.926Z,11.59
2019-03-09T10:09:04.100Z,8.52
2019-03-09T10:13:51.708Z,13.06
2019-03-09T10:34:04.348Z,9.20
2019-03-09T10:39:12.631Z,10.27
2019-03-09T10:49:37.604Z,11.48
2019-03-09T10:54:24.887Z,12.29
2019-03-09T10:59:32.038Z,11.01
2019-03-09T11:04:40.435Z,7.41
2019-03-09T11:10:00.571Z,6.37
2019-03-09T11:14:48.604Z,7.79
2019-03-09T11:19:56.751Z,10.37
2019-03-09T11:25:04.888Z,9.41
2019-03-09T11:30:13.067Z,8.50
2019-03-09T11:35:20.726Z,8.97
2019-03-09T11:40:27.854Z,8.95
2019-03-09T11:45:48.960Z,12.22
2019-03-09T11:50:37.027Z,16.67
2019-03-09T11:55:45.303Z,15.37
2019-03-09T12:00:52.542Z,14.03
2019-03-09T12:05:59.852Z,12.67
2019-03-09T12:11:07.079Z,9.15
2019-03-09T12:16:14.599Z,6.51
2019-03-09T12:21:21.817Z,4.95
2019-03-09T12:26:42.071Z,6.28
2019-03-09T12:31:29.115Z,9.13
2019-03-09T12:36:37.391Z,8.77
2019-03-09T12:46:49.931Z,7.47
2019-03-09T12:52:11.025Z,7.30
2019-03-09T12:56:58.529Z,6.16
2019-03-09T13:02:06.732Z,7.39
2019-03-09T13:07:15.158Z,8.21
2019-03-09T13:12:22.429Z,6.00
2019-03-09T13:17:43.835Z,8.80
2019-03-09T13:27:38.654Z,10.74
2019-03-09T13:32:46.972Z,11.28
2019-03-09T13:37:54.353Z,10.19
2019-03-09T13:43:01.608Z,9.95
2019-03-09T13:48:21.874Z,10.44
2019-03-09T13:53:09.100Z,12.26
2019-03-09T13:58:16.551Z,12.46
2019-03-09T14:03:23.638Z,12.28
2019-03-09T14:08:32.108Z,6.92
2019-03-09T14:13:39.450Z,4.23
2019-03-09T14:18:47.008Z,5.94
2019-03-09T14:23:55.291Z,5.75
2019-03-09T14:29:02.667Z,8.35
2019-03-09T14:34:23.783Z,9.89
2019-03-09T14:39:23.927Z,9.44
2019-03-09T14:44:11.211Z,6.19
2019-03-09T14:49:31.308Z,5.59
2019-03-09T14:54:19.497Z,7.21
2019-03-09T14:59:39.729Z,8.22
2019-03-09T15:04:26.943Z,7.63
2019-03-09T15:09:34.359Z,6.24
2019-03-09T15:14:42.591Z,4.53
2019-03-09T15:19:49.861Z,4.82
2019-03-09T15:24:57.053Z,5.75
2019-03-09T15:30:05.285Z,3.98
2019-03-09T15:35:12.510Z,6.47
2019-03-09T15:40:33.719Z,4.67
2019-03-09T15:45:33.766Z,5.55
2019-03-09T15:50:22.286Z,4.65
2019-03-09T15:55:29.450Z,5.20
2019-03-09T16:00:36.705Z,4.98
2019-03-09T16:05:45.010Z,6.16
2019-03-09T16:10:52.218Z,5.60
2019-03-09T16:16:00.300Z,5.02
2019-03-09T16:21:10.567Z,4.91
2019-03-09T16:26:08.854Z,8.24
2019-03-09T16:31:29.063Z,8.08
2019-03-09T16:36:16.367Z,3.56
2019-03-09T16:41:36.667Z,7.32
2019-03-09T16:46:23.800Z,4.09
2019-03-09T16:51:45.124Z,5.39
2019-03-09T17:01:33.785Z,7.18
2019-03-09T17:06:53.951Z,5.35
2019-03-09T17:16:44.869Z,6.45
2019-03-09T17:22:06.080Z,5.62
2019-03-09T17:26:54.234Z,4.14
2019-03-09T17:32:14.549Z,3.38
2019-03-09T17:37:01.786Z,4.92
2019-03-09T17:42:10.243Z,13.21
2019-03-09T17:47:16.951Z,6.46
2019-03-09T17:52:24.827Z,5.93
2019-03-09T18:02:48.822Z,5.59
2019-03-09T18:07:48.910Z,4.99
2019-03-09T18:12:40.518Z,7.54
2019-03-09T18:17:49.694Z,2.83
2019-03-09T18:33:07.472Z,5.19
2019-03-09T18:38:01.740Z,6.53
2019-03-09T18:42:59.527Z,5.11
2019-03-09T18:48:24.432Z,4.70
2019-03-09T18:53:26.121Z,3.46
2019-03-09T19:03:31.325Z,3.34
2019-03-09T19:23:25.114Z,5.32
2019-03-09T19:28:33.402Z,6.29
2019-03-09T19:33:40.700Z,5.85
2019-03-09T19:38:47.993Z,6.37
2019-03-09T19:43:55.247Z,8.39
2019-03-09T19:49:03.541Z,9.17
2019-03-09T19:54:11.066Z,4.88
2019-03-09T19:59:31.940Z,5.65
2019-03-09T20:04:33.204Z,7.19
2019-03-09T20:09:33.215Z,5.33
2019-03-09T20:14:34.500Z,6.64
2019-03-09T20:19:34.618Z,8.42
2019-03-09T20:24:21.956Z,8.57
2019-03-09T20:29:41.923Z,6.89
2019-03-09T20:34:30.231Z,3.96
2019-03-09T20:39:50.321Z,5.78
2019-03-09T20:44:37.517Z,7.55
2019-03-09T20:49:58.697Z,4.72
2019-03-09T20:54:45.931Z,7.17
2019-03-09T20:59:53.198Z,7.36
2019-03-09T21:05:00.752Z,6.90
2019-03-09T21:10:07.873Z,7.55
2019-03-09T21:15:15.150Z,8.87
2019-03-09T21:20:39.340Z,9.88
2019-03-09T21:25:26.749Z,7.73
2019-03-09T21:30:33.952Z,7.11
2019-03-09T21:35:42.203Z,10.04
2019-03-09T21:41:03.322Z,6.70
2019-03-09T21:45:50.803Z,6.28
2019-03-09T21:51:10.800Z,7.28
2019-03-09T21:56:11.970Z,8.24
2019-03-09T22:06:05.995Z,5.49
2019-03-09T22:11:20.129Z,10.97
2019-03-09T22:16:07.915Z,6.38
2019-03-09T22:21:27.878Z,7.35
2019-03-09T22:26:16.258Z,7.92
2019-03-09T22:31:36.434Z,8.86
2019-03-09T22:36:36.777Z,4.74
2019-03-09T22:41:24.021Z,7.65
2019-03-09T22:46:31.476Z,7.21
2019-03-09T22:51:39.677Z,8.97
2019-03-09T22:56:59.896Z,8.13
2019-03-09T23:02:01.017Z,6.72
2019-03-09T23:07:01.262Z,8.02
2019-03-09T23:11:48.644Z,7.43
2019-03-09T23:16:57.028Z,9.60
2019-03-09T23:22:04.065Z,6.21
2019-03-09T23:27:25.273Z,6.94
2019-03-09T23:32:26.279Z,10.77
2019-03-09T23:37:27.282Z,4.89
2019-03-09T23:42:15.336Z,6.39
2019-03-09T23:47:36.694Z,10.09
2019-03-09T23:52:37.832Z,8.78
2019-03-09T23:57:38.025Z,9.17
